sensor_id;sensor_type;location;lat;lon;timestamp;P1;durP1;ratioP1;P2;durP2;ratioP2
20287;SDS011;10303;51.960;8.372;2022-12-18T00:01:20;5.75;;;3.55;;
20287;SDS011;10303;51.960;8.372;2022-12-18T00:03:47;6.25;;;4.18;;
20287;SDS011;10303;51.960;8.372;2022-12-18T00:06:14;4.38;;;2.92;;
20287;SDS011;10303;51.960;8.372;2022-12-18T00:08:42;5.18;;;2.85;;
20287;SDS011;10303;51.960;8.372;2022-12-18T00:11:13;5.05;;;3.13;;
20287;SDS011;10303;51.960;8.372;2022-12-18T00:13:42;5.13;;;3.08;;
20287;SDS011;10303;51.960;8.372;2022-12-18T00:16:11;4.55;;;2.45;;
20287;SDS011;10303;51.960;8.372;2022-12-18T00:18:40;4.93;;;2.72;;
20287;SDS011;10303;51.960;8.372;2022-12-18T00:21:08;6.13;;;3.20;;
20287;SDS011;10303;51.960;8.372;2022-12-18T00:23:37;4.45;;;3.00;;
20287;SDS011;10303;51.960;8.372;2022-12-18T00:26:06;5.35;;;3.00;;
20287;SDS011;10303;51.960;8.372;2022-12-18T00:28:44;5.75;;;3.08;;
20287;SDS011;10303;51.960;8.372;2022-12-18T00:31:18;4.95;;;2.50;;
20287;SDS011;10303;51.960;8.372;2022-12-18T00:33:47;4.65;;;3.03;;
20287;SDS011;10303;51.960;8.372;2022-12-18T00:36:18;3.40;;;2.50;;
20287;SDS011;10303;51.960;8.372;2022-12-18T00:38:46;9.80;;;3.55;;
20287;SDS011;10303;51.960;8.372;2022-12-18T00:41:16;3.42;;;2.60;;
20287;SDS011;10303;51.960;8.372;2022-12-18T00:44:03;2.60;;;2.05;;
20287;SDS011;10303;51.960;8.372;2022-12-18T00:46:31;4.20;;;2.15;;
20287;SDS011;10303;51.960;8.372;2022-12-18T00:48:58;3.33;;;2.47;;
20287;SDS011;10303;51.960;8.372;2022-12-18T00:51:25;4.68;;;2.00;;
20287;SDS011;10303;51.960;8.372;2022-12-18T00:53:52;2.90;;;2.05;;
20287;SDS011;10303;51.960;8.372;2022-12-18T00:56:18;4.00;;;2.03;;
20287;SDS011;10303;51.960;8.372;2022-12-18T00:58:47;5.35;;;1.85;;
20287;SDS011;10303;51.960;8.372;2022-12-18T01:01:13;2.08;;;1.88;;
20287;SDS011;10303;51.960;8.372;2022-12-18T01:03:39;6.10;;;2.22;;
20287;SDS011;10303;51.960;8.372;2022-12-18T01:06:06;2.78;;;1.92;;
20287;SDS011;10303;51.960;8.372;2022-12-18T01:08:37;4.03;;;2.33;;
20287;SDS011;10303;51.960;8.372;2022-12-18T01:11:07;2.00;;;1.45;;
20287;SDS011;10303;51.960;8.372;2022-12-18T01:13:37;2.35;;;1.55;;
20287;SDS011;10303;51.960;8.372;2022-12-18T01:16:04;3.13;;;1.60;;
20287;SDS011;10303;51.960;8.372;2022-12-18T01:18:30;2.20;;;1.13;;
20287;SDS011;10303;51.960;8.372;2022-12-18T01:20:57;1.85;;;1.60;;
20287;SDS011;10303;51.960;8.372;2022-12-18T01:23:23;2.70;;;1.92;;
20287;SDS011;10303;51.960;8.372;2022-12-18T01:25:49;5.13;;;2.20;;
20287;SDS011;10303;51.960;8.372;2022-12-18T01:28:15;3.40;;;1.60;;
20287;SDS011;10303;51.960;8.372;2022-12-18T01:30:41;2.17;;;1.83;;
20287;SDS011;10303;51.960;8.372;2022-12-18T01:33:07;4.43;;;2.10;;
20287;SDS011;10303;51.960;8.372;2022-12-18T01:35:39;2.40;;;1.50;;
20287;SDS011;10303;51.960;8.372;2022-12-18T01:38:07;2.08;;;1.38;;
20287;SDS011;10303;51.960;8.372;2022-12-18T01:40:33;4.55;;;1.60;;
20287;SDS011;10303;51.960;8.372;2022-12-18T01:42:59;1.40;;;1.30;;
20287;SDS011;10303;51.960;8.372;2022-12-18T01:45:26;1.43;;;1.33;;
20287;SDS011;10303;51.960;8.372;2022-12-18T01:47:55;2.58;;;1.67;;
20287;SDS011;10303;51.960;8.372;2022-12-18T01:50:30;1.60;;;1.20;;
20287;SDS011;10303;51.960;8.372;2022-12-18T01:53:05;3.08;;;1.23;;
20287;SDS011;10303;51.960;8.372;2022-12-18T01:58:18;2.25;;;1.42;;
20287;SDS011;10303;51.960;8.372;2022-12-18T02:00:48;1.80;;;1.40;;
20287;SDS011;10303;51.960;8.372;2022-12-18T02:03:14;2.03;;;1.20;;
20287;SDS011;10303;51.960;8.372;2022-12-18T02:05:44;2.58;;;1.58;;
20287;SDS011;10303;51.960;8.372;2022-12-18T02:08:39;1.20;;;1.10;;
20287;SDS011;10303;51.960;8.372;2022-12-18T02:11:24;2.75;;;1.30;;
20287;SDS011;10303;51.960;8.372;2022-12-18T02:16:52;1.52;;;1.38;;
20287;SDS011;10303;51.960;8.372;2022-12-18T02:22:46;2.22;;;1.45;;
20287;SDS011;10303;51.960;8.372;2022-12-18T02:28:13;1.70;;;1.02;;
20287;SDS011;10303;51.960;8.372;2022-12-18T02:30:45;1.23;;;1.05;;
20287;SDS011;10303;51.960;8.372;2022-12-18T02:33:16;2.22;;;1.45;;
20287;SDS011;10303;51.960;8.372;2022-12-18T02:35:44;2.10;;;1.58;;
20287;SDS011;10303;51.960;8.372;2022-12-18T02:38:12;1.27;;;1.17;;
20287;SDS011;10303;51.960;8.372;2022-12-18T02:40:44;2.05;;;1.17;;
20287;SDS011;10303;51.960;8.372;2022-12-18T02:43:15;1.92;;;1.63;;
20287;SDS011;10303;51.960;8.372;2022-12-18T02:45:49;1.60;;;1.50;;
20287;SDS011;10303;51.960;8.372;2022-12-18T02:48:32;1.40;;;1.20;;
20287;SDS011;10303;51.960;8.372;2022-12-18T02:51:05;1.15;;;1.05;;
20287;SDS011;10303;51.960;8.372;2022-12-18T02:53:52;0.90;;;0.82;;
20287;SDS011;10303;51.960;8.372;2022-12-18T02:56:31;1.83;;;1.02;;
20287;SDS011;10303;51.960;8.372;2022-12-18T02:59:21;1.40;;;1.20;;
20287;SDS011;10303;51.960;8.372;2022-12-18T03:02:17;1.50;;;1.00;;
20287;SDS011;10303;51.960;8.372;2022-12-18T03:04:59;1.48;;;1.20;;
20287;SDS011;10303;51.960;8.372;2022-12-18T03:07:46;2.00;;;1.48;;
20287;SDS011;10303;51.960;8.372;2022-12-18T03:10:36;1.45;;;0.90;;
20287;SDS011;10303;51.960;8.372;2022-12-18T03:15:59;1.52;;;1.00;;
20287;SDS011;10303;51.960;8.372;2022-12-18T03:18:47;1.30;;;1.10;;
20287;SDS011;10303;51.960;8.372;2022-12-18T03:21:27;1.20;;;0.95;;
20287;SDS011;10303;51.960;8.372;2022-12-18T03:24:09;1.10;;;1.00;;
20287;SDS011;10303;51.960;8.372;2022-12-18T03:26:38;2.40;;;0.90;;
20287;SDS011;10303;51.960;8.372;2022-12-18T03:29:15;0.73;;;0.73;;
20287;SDS011;10303;51.960;8.372;2022-12-18T03:31:50;1.00;;;0.88;;
20287;SDS011;10303;51.960;8.372;2022-12-18T03:34:29;2.33;;;1.20;;
20287;SDS011;10303;51.960;8.372;2022-12-18T03:37:02;1.38;;;1.15;;
20287;SDS011;10303;51.960;8.372;2022-12-18T03:39:31;4.18;;;1.40;;
20287;SDS011;10303;51.960;8.372;2022-12-18T03:42:01;2.03;;;1.50;;
20287;SDS011;10303;51.960;8.372;2022-12-18T03:44:49;1.63;;;1.10;;
20287;SDS011;10303;51.960;8.372;2022-12-18T03:50:49;0.80;;;0.80;;
20287;SDS011;10303;51.960;8.372;2022-12-18T03:56:37;1.33;;;0.68;;
20287;SDS011;10303;51.960;8.372;2022-12-18T03:59:10;1.80;;;0.80;;
20287;SDS011;10303;51.960;8.372;2022-12-18T04:01:48;1.52;;;1.05;;
20287;SDS011;10303;51.960;8.372;2022-12-18T04:04:18;1.02;;;0.98;;
20287;SDS011;10303;51.960;8.372;2022-12-18T04:06:47;1.52;;;1.05;;
20287;SDS011;10303;51.960;8.372;2022-12-18T04:09:17;1.08;;;0.85;;
20287;SDS011;10303;51.960;8.372;2022-12-18T04:11:46;0.80;;;0.80;;
20287;SDS011;10303;51.960;8.372;2022-12-18T04:14:14;1.98;;;1.20;;
20287;SDS011;10303;51.960;8.372;2022-12-18T04:16:40;1.20;;;0.77;;
20287;SDS011;10303;51.960;8.372;2022-12-18T04:19:10;0.80;;;0.80;;
20287;SDS011;10303;51.960;8.372;2022-12-18T04:21:39;1.35;;;0.80;;
20287;SDS011;10303;51.960;8.372;2022-12-18T04:24:07;0.77;;;0.75;;
20287;SDS011;10303;51.960;8.372;2022-12-18T04:26:36;1.35;;;0.80;;
20287;SDS011;10303;51.960;8.372;2022-12-18T04:29:14;1.83;;;0.55;;
20287;SDS011;10303;51.960;8.372;2022-12-18T04:31:40;0.65;;;0.63;;
20287;SDS011;10303;51.960;8.372;2022-12-18T04:34:06;1.00;;;0.80;;
20287;SDS011;10303;51.960;8.372;2022-12-18T04:36:38;1.30;;;0.70;;
20287;SDS011;10303;51.960;8.372;2022-12-18T04:39:04;2.37;;;1.03;;
20287;SDS011;10303;51.960;8.372;2022-12-18T04:41:30;1.70;;;0.85;;
20287;SDS011;10303;51.960;8.372;2022-12-18T04:43:57;0.80;;;0.60;;
20287;SDS011;10303;51.960;8.372;2022-12-18T04:46:22;0.80;;;0.80;;
20287;SDS011;10303;51.960;8.372;2022-12-18T04:48:48;0.70;;;0.70;;
20287;SDS011;10303;51.960;8.372;2022-12-18T04:51:14;0.60;;;0.60;;
20287;SDS011;10303;51.960;8.372;2022-12-18T04:53:40;0.85;;;0.52;;
20287;SDS011;10303;51.960;8.372;2022-12-18T04:56:07;0.90;;;0.70;;
20287;SDS011;10303;51.960;8.372;2022-12-18T04:58:39;1.83;;;0.98;;
20287;SDS011;10303;51.960;8.372;2022-12-18T05:01:08;1.15;;;0.70;;
20287;SDS011;10303;51.960;8.372;2022-12-18T05:03:35;0.73;;;0.70;;
20287;SDS011;10303;51.960;8.372;2022-12-18T05:06:03;0.52;;;0.52;;
20287;SDS011;10303;51.960;8.372;2022-12-18T05:08:30;0.80;;;0.52;;
20287;SDS011;10303;51.960;8.372;2022-12-18T05:11:03;1.10;;;1.00;;
20287;SDS011;10303;51.960;8.372;2022-12-18T05:13:35;0.75;;;0.73;;
20287;SDS011;10303;51.960;8.372;2022-12-18T05:16:03;1.92;;;0.90;;
20287;SDS011;10303;51.960;8.372;2022-12-18T05:18:29;2.03;;;0.63;;
20287;SDS011;10303;51.960;8.372;2022-12-18T05:20:57;1.83;;;1.33;;
20287;SDS011;10303;51.960;8.372;2022-12-18T05:23:23;3.80;;;0.80;;
20287;SDS011;10303;51.960;8.372;2022-12-18T05:25:51;1.35;;;1.05;;
20287;SDS011;10303;51.960;8.372;2022-12-18T05:28:20;1.15;;;0.93;;
20287;SDS011;10303;51.960;8.372;2022-12-18T05:30:49;2.00;;;1.05;;
20287;SDS011;10303;51.960;8.372;2022-12-18T05:33:18;1.33;;;1.05;;
20287;SDS011;10303;51.960;8.372;2022-12-18T05:35:50;0.80;;;0.68;;
20287;SDS011;10303;51.960;8.372;2022-12-18T05:38:24;1.85;;;1.20;;
20287;SDS011;10303;51.960;8.372;2022-12-18T05:40:52;1.50;;;1.00;;
20287;SDS011;10303;51.960;8.372;2022-12-18T05:43:19;1.33;;;0.95;;
20287;SDS011;10303;51.960;8.372;2022-12-18T05:45:49;1.25;;;1.13;;
20287;SDS011;10303;51.960;8.372;2022-12-18T05:48:16;1.75;;;1.10;;
20287;SDS011;10303;51.960;8.372;2022-12-18T05:50:43;5.10;;;0.90;;
20287;SDS011;10303;51.960;8.372;2022-12-18T05:53:11;2.15;;;1.00;;
20287;SDS011;10303;51.960;8.372;2022-12-18T05:55:40;1.35;;;0.93;;
20287;SDS011;10303;51.960;8.372;2022-12-18T05:58:08;1.98;;;1.23;;
20287;SDS011;10303;51.960;8.372;2022-12-18T06:00:37;2.15;;;1.25;;
20287;SDS011;10303;51.960;8.372;2022-12-18T06:03:06;1.85;;;0.98;;
20287;SDS011;10303;51.960;8.372;2022-12-18T06:05:38;0.77;;;0.77;;
20287;SDS011;10303;51.960;8.372;2022-12-18T06:08:09;2.45;;;1.35;;
20287;SDS011;10303;51.960;8.372;2022-12-18T06:10:35;1.70;;;0.82;;
20287;SDS011;10303;51.960;8.372;2022-12-18T06:13:02;1.15;;;1.00;;
20287;SDS011;10303;51.960;8.372;2022-12-18T06:15:29;1.15;;;1.05;;
20287;SDS011;10303;51.960;8.372;2022-12-18T06:17:55;1.08;;;0.95;;
20287;SDS011;10303;51.960;8.372;2022-12-18T06:20:21;2.08;;;1.20;;
20287;SDS011;10303;51.960;8.372;2022-12-18T06:22:48;1.45;;;1.35;;
20287;SDS011;10303;51.960;8.372;2022-12-18T06:25:14;2.97;;;1.23;;
20287;SDS011;10303;51.960;8.372;2022-12-18T06:27:40;1.85;;;1.10;;
20287;SDS011;10303;51.960;8.372;2022-12-18T06:30:06;1.17;;;0.80;;
20287;SDS011;10303;51.960;8.372;2022-12-18T06:32:33;1.35;;;0.90;;
20287;SDS011;10303;51.960;8.372;2022-12-18T06:34:59;1.27;;;0.80;;
20287;SDS011;10303;51.960;8.372;2022-12-18T06:37:25;1.27;;;1.10;;
20287;SDS011;10303;51.960;8.372;2022-12-18T06:39:52;2.23;;;1.10;;
20287;SDS011;10303;51.960;8.372;2022-12-18T06:42:18;2.00;;;0.93;;
20287;SDS011;10303;51.960;8.372;2022-12-18T06:44:44;1.93;;;1.13;;
20287;SDS011;10303;51.960;8.372;2022-12-18T06:47:10;1.03;;;0.90;;
20287;SDS011;10303;51.960;8.372;2022-12-18T06:49:36;1.40;;;1.30;;
20287;SDS011;10303;51.960;8.372;2022-12-18T06:52:02;1.23;;;1.13;;
20287;SDS011;10303;51.960;8.372;2022-12-18T06:54:28;1.30;;;0.98;;
20287;SDS011;10303;51.960;8.372;2022-12-18T06:56:54;0.93;;;0.83;;
20287;SDS011;10303;51.960;8.372;2022-12-18T06:59:21;1.58;;;0.80;;
20287;SDS011;10303;51.960;8.372;2022-12-18T07:01:47;1.97;;;1.43;;
20287;SDS011;10303;51.960;8.372;2022-12-18T07:04:13;2.30;;;1.13;;
20287;SDS011;10303;51.960;8.372;2022-12-18T07:06:39;1.60;;;1.23;;
20287;SDS011;10303;51.960;8.372;2022-12-18T07:09:05;1.47;;;1.30;;
20287;SDS011;10303;51.960;8.372;2022-12-18T07:11:34;6.13;;;2.00;;
20287;SDS011;10303;51.960;8.372;2022-12-18T07:14:00;4.85;;;2.83;;
20287;SDS011;10303;51.960;8.372;2022-12-18T07:16:26;9.85;;;4.10;;
20287;SDS011;10303;51.960;8.372;2022-12-18T07:18:55;6.15;;;3.08;;
20287;SDS011;10303;51.960;8.372;2022-12-18T07:21:22;6.53;;;3.72;;
20287;SDS011;10303;51.960;8.372;2022-12-18T07:23:49;4.78;;;3.05;;
20287;SDS011;10303;51.960;8.372;2022-12-18T07:26:17;4.22;;;2.33;;
20287;SDS011;10303;51.960;8.372;2022-12-18T07:28:45;3.33;;;2.45;;
20287;SDS011;10303;51.960;8.372;2022-12-18T07:31:14;2.25;;;2.05;;
20287;SDS011;10303;51.960;8.372;2022-12-18T07:33:44;5.47;;;2.33;;
20287;SDS011;10303;51.960;8.372;2022-12-18T07:36:11;3.35;;;2.15;;
20287;SDS011;10303;51.960;8.372;2022-12-18T07:38:39;2.47;;;1.98;;
20287;SDS011;10303;51.960;8.372;2022-12-18T07:41:07;4.55;;;1.75;;
20287;SDS011;10303;51.960;8.372;2022-12-18T07:43:38;2.00;;;1.80;;
20287;SDS011;10303;51.960;8.372;2022-12-18T07:46:06;4.25;;;1.83;;
20287;SDS011;10303;51.960;8.372;2022-12-18T07:48:34;4.18;;;1.40;;
20287;SDS011;10303;51.960;8.372;2022-12-18T07:51:00;3.13;;;1.23;;
20287;SDS011;10303;51.960;8.372;2022-12-18T07:53:29;1.65;;;1.38;;
20287;SDS011;10303;51.960;8.372;2022-12-18T07:55:56;2.85;;;1.48;;
20287;SDS011;10303;51.960;8.372;2022-12-18T07:58:23;3.63;;;1.60;;
20287;SDS011;10303;51.960;8.372;2022-12-18T08:00:51;3.08;;;1.70;;
20287;SDS011;10303;51.960;8.372;2022-12-18T08:03:18;1.88;;;1.05;;
20287;SDS011;10303;51.960;8.372;2022-12-18T08:05:45;2.70;;;1.60;;
20287;SDS011;10303;51.960;8.372;2022-12-18T08:08:11;1.67;;;1.48;;
20287;SDS011;10303;51.960;8.372;2022-12-18T08:10:37;2.93;;;1.47;;
20287;SDS011;10303;51.960;8.372;2022-12-18T08:13:04;1.70;;;1.30;;
20287;SDS011;10303;51.960;8.372;2022-12-18T08:15:30;1.75;;;1.50;;
20287;SDS011;10303;51.960;8.372;2022-12-18T08:17:56;2.10;;;1.50;;
20287;SDS011;10303;51.960;8.372;2022-12-18T08:20:22;3.22;;;1.75;;
20287;SDS011;10303;51.960;8.372;2022-12-18T08:22:48;3.10;;;2.03;;
20287;SDS011;10303;51.960;8.372;2022-12-18T08:25:14;3.13;;;1.70;;
20287;SDS011;10303;51.960;8.372;2022-12-18T08:27:40;3.45;;;1.70;;
20287;SDS011;10303;51.960;8.372;2022-12-18T08:30:06;2.90;;;2.10;;
20287;SDS011;10303;51.960;8.372;2022-12-18T08:32:33;7.53;;;2.00;;
20287;SDS011;10303;51.960;8.372;2022-12-18T08:34:59;4.53;;;2.23;;
20287;SDS011;10303;51.960;8.372;2022-12-18T08:37:25;2.13;;;1.70;;
20287;SDS011;10303;51.960;8.372;2022-12-18T08:39:51;3.30;;;1.43;;
20287;SDS011;10303;51.960;8.372;2022-12-18T08:42:17;3.77;;;1.60;;
20287;SDS011;10303;51.960;8.372;2022-12-18T08:45:02;2.63;;;1.70;;
20287;SDS011;10303;51.960;8.372;2022-12-18T08:47:29;3.17;;;2.13;;
20287;SDS011;10303;51.960;8.372;2022-12-18T08:49:55;3.13;;;1.70;;
20287;SDS011;10303;51.960;8.372;2022-12-18T08:52:21;2.77;;;1.83;;
20287;SDS011;10303;51.960;8.372;2022-12-18T08:54:47;3.13;;;2.00;;
20287;SDS011;10303;51.960;8.372;2022-12-18T08:57:13;1.43;;;1.30;;
20287;SDS011;10303;51.960;8.372;2022-12-18T08:59:39;2.47;;;2.13;;
20287;SDS011;10303;51.960;8.372;2022-12-18T09:02:05;2.63;;;1.60;;
20287;SDS011;10303;51.960;8.372;2022-12-18T09:04:31;3.00;;;1.67;;
20287;SDS011;10303;51.960;8.372;2022-12-18T09:06:56;4.07;;;1.97;;
20287;SDS011;10303;51.960;8.372;2022-12-18T09:09:22;2.80;;;2.10;;
20287;SDS011;10303;51.960;8.372;2022-12-18T09:11:48;5.20;;;2.33;;
20287;SDS011;10303;51.960;8.372;2022-12-18T09:14:14;3.30;;;1.70;;
20287;SDS011;10303;51.960;8.372;2022-12-18T09:16:40;4.07;;;2.30;;
20287;SDS011;10303;51.960;8.372;2022-12-18T09:19:07;2.97;;;2.10;;
20287;SDS011;10303;51.960;8.372;2022-12-18T09:21:34;6.57;;;2.33;;
20287;SDS011;10303;51.960;8.372;2022-12-18T09:24:01;3.47;;;1.90;;
20287;SDS011;10303;51.960;8.372;2022-12-18T09:26:27;2.60;;;1.93;;
20287;SDS011;10303;51.960;8.372;2022-12-18T09:28:53;4.20;;;2.00;;
20287;SDS011;10303;51.960;8.372;2022-12-18T09:31:21;1.93;;;1.63;;
20287;SDS011;10303;51.960;8.372;2022-12-18T09:33:49;2.57;;;2.30;;
20287;SDS011;10303;51.960;8.372;2022-12-18T09:36:16;2.40;;;2.17;;
20287;SDS011;10303;51.960;8.372;2022-12-18T09:38:43;2.90;;;1.80;;
20287;SDS011;10303;51.960;8.372;2022-12-18T09:41:25;2.20;;;1.70;;
20287;SDS011;10303;51.960;8.372;2022-12-18T09:44:41;2.80;;;2.03;;
20287;SDS011;10303;51.960;8.372;2022-12-18T09:47:18;3.43;;;2.30;;
20287;SDS011;10303;51.960;8.372;2022-12-18T09:49:52;3.77;;;2.87;;
20287;SDS011;10303;51.960;8.372;2022-12-18T09:52:43;5.03;;;1.93;;
20287;SDS011;10303;51.960;8.372;2022-12-18T09:55:34;2.70;;;2.03;;
20287;SDS011;10303;51.960;8.372;2022-12-18T10:01:00;3.40;;;2.30;;
20287;SDS011;10303;51.960;8.372;2022-12-18T10:03:27;2.97;;;2.10;;
20287;SDS011;10303;51.960;8.372;2022-12-18T10:06:15;2.60;;;2.20;;
20287;SDS011;10303;51.960;8.372;2022-12-18T10:15:08;2.87;;;2.00;;
20287;SDS011;10303;51.960;8.372;2022-12-18T10:17:58;2.77;;;2.00;;
20287;SDS011;10303;51.960;8.372;2022-12-18T10:20:56;3.23;;;2.17;;
20287;SDS011;10303;51.960;8.372;2022-12-18T10:26:25;3.83;;;3.20;;
20287;SDS011;10303;51.960;8.372;2022-12-18T10:28:51;4.63;;;2.30;;
20287;SDS011;10303;51.960;8.372;2022-12-18T10:31:20;3.77;;;2.77;;
20287;SDS011;10303;51.960;8.372;2022-12-18T10:33:48;5.27;;;3.10;;
20287;SDS011;10303;51.960;8.372;2022-12-18T10:36:14;3.63;;;2.17;;
20287;SDS011;10303;51.960;8.372;2022-12-18T10:38:41;5.23;;;3.10;;
20287;SDS011;10303;51.960;8.372;2022-12-18T10:46:50;3.03;;;2.30;;
20287;SDS011;10303;51.960;8.372;2022-12-18T10:49:25;4.73;;;2.37;;
20287;SDS011;10303;51.960;8.372;2022-12-18T10:52:06;2.30;;;1.97;;
20287;SDS011;10303;51.960;8.372;2022-12-18T10:54:45;4.07;;;2.43;;
20287;SDS011;10303;51.960;8.372;2022-12-18T10:57:34;3.63;;;2.53;;
20287;SDS011;10303;51.960;8.372;2022-12-18T11:00:20;4.77;;;2.93;;
20287;SDS011;10303;51.960;8.372;2022-12-18T11:02:49;4.63;;;2.90;;
20287;SDS011;10303;51.960;8.372;2022-12-18T11:07:54;2.77;;;1.97;;
20287;SDS011;10303;51.960;8.372;2022-12-18T11:10:22;2.10;;;1.43;;
20287;SDS011;10303;51.960;8.372;2022-12-18T11:15:46;10.80;;;3.03;;
20287;SDS011;10303;51.960;8.372;2022-12-18T11:18:34;3.27;;;2.47;;
20287;SDS011;10303;51.960;8.372;2022-12-18T11:23:36;3.53;;;2.33;;
20287;SDS011;10303;51.960;8.372;2022-12-18T11:26:15;2.10;;;1.50;;
20287;SDS011;10303;51.960;8.372;2022-12-18T11:28:52;2.23;;;1.77;;
20287;SDS011;10303;51.960;8.372;2022-12-18T11:31:35;2.07;;;1.87;;
20287;SDS011;10303;51.960;8.372;2022-12-18T11:34:05;2.43;;;1.70;;
20287;SDS011;10303;51.960;8.372;2022-12-18T11:36:44;2.73;;;1.80;;
20287;SDS011;10303;51.960;8.372;2022-12-18T11:42:12;2.93;;;2.10;;
20287;SDS011;10303;51.960;8.372;2022-12-18T11:44:51;3.37;;;1.70;;
20287;SDS011;10303;51.960;8.372;2022-12-18T11:47:49;4.53;;;2.00;;
20287;SDS011;10303;51.960;8.372;2022-12-18T11:50:52;1.87;;;1.57;;
20287;SDS011;10303;51.960;8.372;2022-12-18T11:53:21;2.67;;;1.53;;
20287;SDS011;10303;51.960;8.372;2022-12-18T11:59:04;2.10;;;1.70;;
20287;SDS011;10303;51.960;8.372;2022-12-18T12:08:34;2.13;;;1.87;;
20287;SDS011;10303;51.960;8.372;2022-12-18T12:14:17;1.57;;;1.20;;
20287;SDS011;10303;51.960;8.372;2022-12-18T12:25:44;3.20;;;1.70;;
20287;SDS011;10303;51.960;8.372;2022-12-18T12:39:49;2.10;;;1.77;;
20287;SDS011;10303;51.960;8.372;2022-12-18T12:42:24;1.40;;;1.30;;
20287;SDS011;10303;51.960;8.372;2022-12-18T12:45:26;2.07;;;1.70;;
20287;SDS011;10303;51.960;8.372;2022-12-18T12:48:01;4.13;;;1.87;;
20287;SDS011;10303;51.960;8.372;2022-12-18T12:50:33;2.60;;;1.50;;
20287;SDS011;10303;51.960;8.372;2022-12-18T12:53:01;1.30;;;1.20;;
20287;SDS011;10303;51.960;8.372;2022-12-18T12:55:37;2.47;;;1.60;;
20287;SDS011;10303;51.960;8.372;2022-12-18T12:58:10;2.73;;;1.83;;
20287;SDS011;10303;51.960;8.372;2022-12-18T13:03:54;2.20;;;1.93;;
20287;SDS011;10303;51.960;8.372;2022-12-18T13:06:53;2.87;;;1.20;;
20287;SDS011;10303;51.960;8.372;2022-12-18T13:12:59;2.20;;;1.63;;
20287;SDS011;10303;51.960;8.372;2022-12-18T13:15:38;2.63;;;1.57;;
20287;SDS011;10303;51.960;8.372;2022-12-18T13:18:14;2.23;;;1.57;;
20287;SDS011;10303;51.960;8.372;2022-12-18T13:20:45;1.53;;;1.40;;
20287;SDS011;10303;51.960;8.372;2022-12-18T13:30:59;2.20;;;1.73;;
20287;SDS011;10303;51.960;8.372;2022-12-18T13:33:36;3.30;;;2.10;;
20287;SDS011;10303;51.960;8.372;2022-12-18T13:41:47;1.67;;;1.40;;
20287;SDS011;10303;51.960;8.372;2022-12-18T13:44:34;3.03;;;1.67;;
20287;SDS011;10303;51.960;8.372;2022-12-18T13:50:10;1.70;;;1.60;;
20287;SDS011;10303;51.960;8.372;2022-12-18T13:52:49;1.43;;;1.20;;
20287;SDS011;10303;51.960;8.372;2022-12-18T13:55:18;1.90;;;1.60;;
20287;SDS011;10303;51.960;8.372;2022-12-18T13:57:47;2.67;;;1.80;;
20287;SDS011;10303;51.960;8.372;2022-12-18T14:02:50;1.40;;;1.30;;
20287;SDS011;10303;51.960;8.372;2022-12-18T14:05:23;1.43;;;1.33;;
20287;SDS011;10303;51.960;8.372;2022-12-18T14:07:55;2.57;;;1.40;;
20287;SDS011;10303;51.960;8.372;2022-12-18T14:10:29;1.60;;;1.30;;
20287;SDS011;10303;51.960;8.372;2022-12-18T14:12:56;1.67;;;1.40;;
20287;SDS011;10303;51.960;8.372;2022-12-18T14:15:34;2.47;;;1.40;;
20287;SDS011;10303;51.960;8.372;2022-12-18T14:18:23;2.70;;;1.77;;
20287;SDS011;10303;51.960;8.372;2022-12-18T14:21:00;2.53;;;1.30;;
20287;SDS011;10303;51.960;8.372;2022-12-18T14:23:36;2.30;;;1.33;;
20287;SDS011;10303;51.960;8.372;2022-12-18T14:28:59;3.77;;;2.17;;
20287;SDS011;10303;51.960;8.372;2022-12-18T14:32:10;2.40;;;1.70;;
20287;SDS011;10303;51.960;8.372;2022-12-18T14:34:49;1.90;;;1.50;;
20287;SDS011;10303;51.960;8.372;2022-12-18T14:37:25;2.60;;;1.20;;
20287;SDS011;10303;51.960;8.372;2022-12-18T14:40:02;1.70;;;1.47;;
20287;SDS011;10303;51.960;8.372;2022-12-18T14:42:29;2.67;;;1.77;;
20287;SDS011;10303;51.960;8.372;2022-12-18T14:48:05;2.67;;;1.70;;
20287;SDS011;10303;51.960;8.372;2022-12-18T14:51:00;3.20;;;2.70;;
20287;SDS011;10303;51.960;8.372;2022-12-18T14:56:01;2.87;;;1.70;;
20287;SDS011;10303;51.960;8.372;2022-12-18T14:58:35;2.50;;;1.87;;
20287;SDS011;10303;51.960;8.372;2022-12-18T15:01:02;4.03;;;2.23;;
20287;SDS011;10303;51.960;8.372;2022-12-18T15:03:28;2.80;;;2.00;;
20287;SDS011;10303;51.960;8.372;2022-12-18T15:05:54;2.87;;;2.20;;
20287;SDS011;10303;51.960;8.372;2022-12-18T15:08:36;2.63;;;1.70;;
20287;SDS011;10303;51.960;8.372;2022-12-18T15:11:02;3.47;;;2.20;;
20287;SDS011;10303;51.960;8.372;2022-12-18T15:14:23;2.70;;;2.20;;
20287;SDS011;10303;51.960;8.372;2022-12-18T15:16:56;8.17;;;2.20;;
20287;SDS011;10303;51.960;8.372;2022-12-18T15:19:35;3.03;;;2.10;;
20287;SDS011;10303;51.960;8.372;2022-12-18T15:22:22;2.67;;;2.33;;
20287;SDS011;10303;51.960;8.372;2022-12-18T15:25:02;3.03;;;2.00;;
20287;SDS011;10303;51.960;8.372;2022-12-18T15:28:01;3.57;;;2.53;;
20287;SDS011;10303;51.960;8.372;2022-12-18T15:30:29;2.27;;;2.07;;
20287;SDS011;10303;51.960;8.372;2022-12-18T15:35:59;4.20;;;2.70;;
20287;SDS011;10303;51.960;8.372;2022-12-18T15:38:29;4.97;;;2.17;;
20287;SDS011;10303;51.960;8.372;2022-12-18T15:40:55;3.50;;;2.50;;
20287;SDS011;10303;51.960;8.372;2022-12-18T15:43:22;2.83;;;2.00;;
20287;SDS011;10303;51.960;8.372;2022-12-18T15:46:18;3.47;;;2.27;;
20287;SDS011;10303;51.960;8.372;2022-12-18T15:48:53;3.43;;;2.83;;
20287;SDS011;10303;51.960;8.372;2022-12-18T15:51:23;3.87;;;2.57;;
20287;SDS011;10303;51.960;8.372;2022-12-18T15:53:55;6.30;;;3.10;;
20287;SDS011;10303;51.960;8.372;2022-12-18T15:56:24;5.43;;;3.20;;
20287;SDS011;10303;51.960;8.372;2022-12-18T15:59:11;4.97;;;3.43;;
20287;SDS011;10303;51.960;8.372;2022-12-18T16:01:42;4.63;;;2.97;;
20287;SDS011;10303;51.960;8.372;2022-12-18T16:04:13;3.83;;;2.70;;
20287;SDS011;10303;51.960;8.372;2022-12-18T16:06:42;3.67;;;3.07;;
20287;SDS011;10303;51.960;8.372;2022-12-18T16:09:08;5.87;;;3.50;;
20287;SDS011;10303;51.960;8.372;2022-12-18T16:11:35;5.67;;;3.50;;
20287;SDS011;10303;51.960;8.372;2022-12-18T16:14:06;3.90;;;2.87;;
20287;SDS011;10303;51.960;8.372;2022-12-18T16:16:46;4.10;;;2.80;;
20287;SDS011;10303;51.960;8.372;2022-12-18T16:19:24;6.23;;;3.40;;
20287;SDS011;10303;51.960;8.372;2022-12-18T16:21:51;3.47;;;3.13;;
20287;SDS011;10303;51.960;8.372;2022-12-18T16:24:21;6.40;;;3.80;;
20287;SDS011;10303;51.960;8.372;2022-12-18T16:26:50;5.13;;;3.43;;
20287;SDS011;10303;51.960;8.372;2022-12-18T16:29:18;6.03;;;3.50;;
20287;SDS011;10303;51.960;8.372;2022-12-18T16:31:50;5.27;;;3.87;;
20287;SDS011;10303;51.960;8.372;2022-12-18T16:34:24;7.10;;;4.13;;
20287;SDS011;10303;51.960;8.372;2022-12-18T16:36:58;7.03;;;3.93;;
20287;SDS011;10303;51.960;8.372;2022-12-18T16:39:27;5.43;;;3.30;;
20287;SDS011;10303;51.960;8.372;2022-12-18T16:41:55;4.57;;;3.23;;
20287;SDS011;10303;51.960;8.372;2022-12-18T16:44:21;6.67;;;3.57;;
20287;SDS011;10303;51.960;8.372;2022-12-18T16:46:48;6.60;;;3.07;;
20287;SDS011;10303;51.960;8.372;2022-12-18T16:49:14;5.47;;;3.63;;
20287;SDS011;10303;51.960;8.372;2022-12-18T16:51:43;4.23;;;2.63;;
20287;SDS011;10303;51.960;8.372;2022-12-18T16:54:11;4.17;;;2.67;;
20287;SDS011;10303;51.960;8.372;2022-12-18T16:56:38;4.57;;;3.63;;
20287;SDS011;10303;51.960;8.372;2022-12-18T16:59:04;6.13;;;3.27;;
20287;SDS011;10303;51.960;8.372;2022-12-18T17:01:31;8.43;;;4.60;;
20287;SDS011;10303;51.960;8.372;2022-12-18T17:04:01;6.00;;;3.77;;
20287;SDS011;10303;51.960;8.372;2022-12-18T17:06:31;6.57;;;3.50;;
20287;SDS011;10303;51.960;8.372;2022-12-18T17:09:02;4.87;;;3.20;;
20287;SDS011;10303;51.960;8.372;2022-12-18T17:11:32;5.20;;;3.63;;
20287;SDS011;10303;51.960;8.372;2022-12-18T17:14:04;7.60;;;4.57;;
20287;SDS011;10303;51.960;8.372;2022-12-18T17:16:37;6.67;;;4.40;;